sensor_id;sensor_type;location;lat;lon;timestamp;P1;durP1;ratioP1;P2;durP2;ratioP2
27704;SDS011;15109;50.992;6.918;2022-12-05T00:00:42;14.20;;;6.97;;
27704;SDS011;15109;50.992;6.918;2022-12-05T00:04:05;18.35;;;7.55;;
27704;SDS011;15109;50.992;6.918;2022-12-05T00:07:27;12.60;;;7.25;;
27704;SDS011;15109;50.992;6.918;2022-12-05T00:10:48;15.18;;;7.18;;
27704;SDS011;15109;50.992;6.918;2022-12-05T00:14:10;14.50;;;7.82;;
27704;SDS011;15109;50.992;6.918;2022-12-05T00:17:31;17.02;;;7.45;;
27704;SDS011;15109;50.992;6.918;2022-12-05T00:20:53;17.40;;;7.03;;
27704;SDS011;15109;50.992;6.918;2022-12-05T00:24:14;13.23;;;7.18;;
27704;SDS011;15109;50.992;6.918;2022-12-05T00:27:36;14.85;;;7.57;;
27704;SDS011;15109;50.992;6.918;2022-12-05T00:30:59;16.38;;;7.25;;
27704;SDS011;15109;50.992;6.918;2022-12-05T00:34:22;13.45;;;6.00;;
27704;SDS011;15109;50.992;6.918;2022-12-05T00:37:43;15.85;;;6.72;;
27704;SDS011;15109;50.992;6.918;2022-12-05T00:41:14;12.52;;;6.95;;
27704;SDS011;15109;50.992;6.918;2022-12-05T00:44:37;9.52;;;5.32;;
27704;SDS011;15109;50.992;6.918;2022-12-05T00:47:58;11.25;;;5.57;;
27704;SDS011;15109;50.992;6.918;2022-12-05T00:51:23;11.52;;;6.05;;
27704;SDS011;15109;50.992;6.918;2022-12-05T00:54:49;12.90;;;5.80;;
27704;SDS011;15109;50.992;6.918;2022-12-05T00:58:10;13.50;;;6.57;;
27704;SDS011;15109;50.992;6.918;2022-12-05T01:01:32;13.02;;;6.22;;
27704;SDS011;15109;50.992;6.918;2022-12-05T01:04:58;15.77;;;6.72;;
27704;SDS011;15109;50.992;6.918;2022-12-05T01:08:19;16.02;;;5.95;;
27704;SDS011;15109;50.992;6.918;2022-12-05T01:11:40;12.23;;;6.97;;
27704;SDS011;15109;50.992;6.918;2022-12-05T01:15:02;14.43;;;6.45;;
27704;SDS011;15109;50.992;6.918;2022-12-05T01:18:24;14.60;;;5.72;;
27704;SDS011;15109;50.992;6.918;2022-12-05T01:21:46;14.52;;;5.82;;
27704;SDS011;15109;50.992;6.918;2022-12-05T01:25:07;11.68;;;6.00;;
27704;SDS011;15109;50.992;6.918;2022-12-05T01:28:29;12.18;;;6.30;;
27704;SDS011;15109;50.992;6.918;2022-12-05T01:31:50;13.07;;;5.30;;
27704;SDS011;15109;50.992;6.918;2022-12-05T01:35:11;10.00;;;4.82;;
27704;SDS011;15109;50.992;6.918;2022-12-05T01:38:32;12.10;;;5.70;;
27704;SDS011;15109;50.992;6.918;2022-12-05T01:41:53;13.25;;;6.20;;
27704;SDS011;15109;50.992;6.918;2022-12-05T01:45:17;13.40;;;5.78;;
27704;SDS011;15109;50.992;6.918;2022-12-05T01:48:44;14.07;;;6.78;;
27704;SDS011;15109;50.992;6.918;2022-12-05T01:55:30;11.30;;;5.95;;
27704;SDS011;15109;50.992;6.918;2022-12-05T01:58:51;11.32;;;5.72;;
27704;SDS011;15109;50.992;6.918;2022-12-05T02:02:13;13.13;;;5.88;;
27704;SDS011;15109;50.992;6.918;2022-12-05T02:05:35;9.90;;;5.95;;
27704;SDS011;15109;50.992;6.918;2022-12-05T02:08:57;12.10;;;6.13;;
27704;SDS011;15109;50.992;6.918;2022-12-05T02:12:19;13.80;;;5.97;;
27704;SDS011;15109;50.992;6.918;2022-12-05T02:15:46;10.57;;;4.93;;
27704;SDS011;15109;50.992;6.918;2022-12-05T02:26:40;10.07;;;5.32;;
27704;SDS011;15109;50.992;6.918;2022-12-05T02:30:22;11.25;;;6.45;;
27704;SDS011;15109;50.992;6.918;2022-12-05T02:33:46;12.27;;;5.57;;
27704;SDS011;15109;50.992;6.918;2022-12-05T02:37:29;12.43;;;5.88;;
27704;SDS011;15109;50.992;6.918;2022-12-05T02:44:49;9.68;;;5.55;;
27704;SDS011;15109;50.992;6.918;2022-12-05T02:48:16;15.55;;;6.95;;
27704;SDS011;15109;50.992;6.918;2022-12-05T02:51:42;14.80;;;5.40;;
27704;SDS011;15109;50.992;6.918;2022-12-05T02:55:08;15.32;;;6.05;;
27704;SDS011;15109;50.992;6.918;2022-12-05T02:58:32;16.63;;;5.28;;
27704;SDS011;15109;50.992;6.918;2022-12-05T03:01:58;13.27;;;5.47;;
27704;SDS011;15109;50.992;6.918;2022-12-05T03:05:31;9.55;;;5.25;;
27704;SDS011;15109;50.992;6.918;2022-12-05T03:09:06;17.52;;;5.55;;
27704;SDS011;15109;50.992;6.918;2022-12-05T03:12:32;7.33;;;3.97;;
27704;SDS011;15109;50.992;6.918;2022-12-05T03:16:04;9.80;;;4.78;;
27704;SDS011;15109;50.992;6.918;2022-12-05T03:30:16;9.15;;;5.32;;
27704;SDS011;15109;50.992;6.918;2022-12-05T03:33:43;13.82;;;6.35;;
27704;SDS011;15109;50.992;6.918;2022-12-05T03:37:20;12.75;;;5.78;;
27704;SDS011;15109;50.992;6.918;2022-12-05T03:44:28;13.45;;;5.95;;
27704;SDS011;15109;50.992;6.918;2022-12-05T03:48:46;10.00;;;5.60;;
27704;SDS011;15109;50.992;6.918;2022-12-05T03:55:39;11.85;;;6.10;;
27704;SDS011;15109;50.992;6.918;2022-12-05T03:59:06;14.68;;;6.22;;
27704;SDS011;15109;50.992;6.918;2022-12-05T04:02:48;13.07;;;5.28;;
27704;SDS011;15109;50.992;6.918;2022-12-05T04:09:43;10.07;;;4.68;;
27704;SDS011;15109;50.992;6.918;2022-12-05T04:13:09;10.57;;;5.15;;
27704;SDS011;15109;50.992;6.918;2022-12-05T04:17:42;11.40;;;5.53;;
27704;SDS011;15109;50.992;6.918;2022-12-05T04:20:40;10.02;;;4.97;;
27704;SDS011;15109;50.992;6.918;2022-12-05T04:24:25;16.63;;;6.40;;
27704;SDS011;15109;50.992;6.918;2022-12-05T04:31:40;9.07;;;4.97;;
27704;SDS011;15109;50.992;6.918;2022-12-05T04:35:05;8.02;;;4.30;;
27704;SDS011;15109;50.992;6.918;2022-12-05T04:38:36;13.48;;;5.80;;
27704;SDS011;15109;50.992;6.918;2022-12-05T04:42:20;10.60;;;4.05;;
27704;SDS011;15109;50.992;6.918;2022-12-05T04:45:43;12.40;;;5.18;;
27704;SDS011;15109;50.992;6.918;2022-12-05T04:49:10;8.77;;;4.90;;
27704;SDS011;15109;50.992;6.918;2022-12-05T04:52:35;9.32;;;5.35;;
27704;SDS011;15109;50.992;6.918;2022-12-05T04:55:59;12.30;;;6.22;;
27704;SDS011;15109;50.992;6.918;2022-12-05T04:59:24;12.23;;;5.13;;
27704;SDS011;15109;50.992;6.918;2022-12-05T05:02:53;9.63;;;4.90;;
27704;SDS011;15109;50.992;6.918;2022-12-05T05:06:23;9.98;;;4.72;;
27704;SDS011;15109;50.992;6.918;2022-12-05T05:09:46;11.05;;;5.40;;
27704;SDS011;15109;50.992;6.918;2022-12-05T05:13:07;12.38;;;5.38;;
27704;SDS011;15109;50.992;6.918;2022-12-05T05:16:29;13.02;;;5.88;;
27704;SDS011;15109;50.992;6.918;2022-12-05T05:19:54;13.40;;;5.65;;
27704;SDS011;15109;50.992;6.918;2022-12-05T05:23:35;9.30;;;5.25;;
27704;SDS011;15109;50.992;6.918;2022-12-05T05:26:56;11.02;;;4.85;;
27704;SDS011;15109;50.992;6.918;2022-12-05T05:30:18;9.20;;;4.68;;
27704;SDS011;15109;50.992;6.918;2022-12-05T05:33:40;8.15;;;4.30;;
27704;SDS011;15109;50.992;6.918;2022-12-05T05:37:01;15.30;;;5.53;;
27704;SDS011;15109;50.992;6.918;2022-12-05T05:40:22;9.25;;;4.55;;
27704;SDS011;15109;50.992;6.918;2022-12-05T05:43:43;7.50;;;4.03;;
27704;SDS011;15109;50.992;6.918;2022-12-05T05:47:04;8.82;;;4.95;;
27704;SDS011;15109;50.992;6.918;2022-12-05T05:50:25;16.92;;;4.43;;
27704;SDS011;15109;50.992;6.918;2022-12-05T05:53:47;8.65;;;4.63;;
27704;SDS011;15109;50.992;6.918;2022-12-05T05:57:11;8.18;;;4.35;;
27704;SDS011;15109;50.992;6.918;2022-12-05T06:00:32;12.77;;;5.28;;
27704;SDS011;15109;50.992;6.918;2022-12-05T06:03:53;10.13;;;5.45;;
27704;SDS011;15109;50.992;6.918;2022-12-05T06:07:14;10.05;;;5.70;;
27704;SDS011;15109;50.992;6.918;2022-12-05T06:10:37;9.48;;;4.72;;
27704;SDS011;15109;50.992;6.918;2022-12-05T06:13:58;12.35;;;5.68;;
27704;SDS011;15109;50.992;6.918;2022-12-05T06:17:23;11.82;;;5.03;;
27704;SDS011;15109;50.992;6.918;2022-12-05T06:20:54;10.27;;;5.05;;
27704;SDS011;15109;50.992;6.918;2022-12-05T06:24:16;12.32;;;5.15;;
27704;SDS011;15109;50.992;6.918;2022-12-05T06:27:40;10.88;;;4.03;;
27704;SDS011;15109;50.992;6.918;2022-12-05T06:31:05;12.45;;;5.65;;
27704;SDS011;15109;50.992;6.918;2022-12-05T06:34:28;11.93;;;4.80;;
27704;SDS011;15109;50.992;6.918;2022-12-05T06:37:49;11.32;;;5.03;;
27704;SDS011;15109;50.992;6.918;2022-12-05T06:41:10;8.27;;;4.18;;
27704;SDS011;15109;50.992;6.918;2022-12-05T06:44:34;10.07;;;4.95;;
27704;SDS011;15109;50.992;6.918;2022-12-05T06:47:56;9.00;;;4.13;;
27704;SDS011;15109;50.992;6.918;2022-12-05T06:51:17;12.68;;;5.20;;
27704;SDS011;15109;50.992;6.918;2022-12-05T06:54:38;8.70;;;4.45;;
27704;SDS011;15109;50.992;6.918;2022-12-05T06:57:59;9.32;;;4.63;;
27704;SDS011;15109;50.992;6.918;2022-12-05T07:01:23;12.93;;;6.22;;
27704;SDS011;15109;50.992;6.918;2022-12-05T07:05:03;13.57;;;5.53;;
27704;SDS011;15109;50.992;6.918;2022-12-05T07:08:24;13.20;;;4.78;;
27704;SDS011;15109;50.992;6.918;2022-12-05T07:11:46;12.98;;;5.50;;
27704;SDS011;15109;50.992;6.918;2022-12-05T07:15:08;7.45;;;4.32;;
27704;SDS011;15109;50.992;6.918;2022-12-05T07:18:29;13.75;;;5.30;;
27704;SDS011;15109;50.992;6.918;2022-12-05T07:21:50;11.32;;;6.22;;
27704;SDS011;15109;50.992;6.918;2022-12-05T07:25:11;9.57;;;4.50;;
27704;SDS011;15109;50.992;6.918;2022-12-05T07:28:33;9.35;;;4.85;;
27704;SDS011;15109;50.992;6.918;2022-12-05T07:31:54;14.93;;;6.45;;
27704;SDS011;15109;50.992;6.918;2022-12-05T07:35:15;10.57;;;5.18;;
27704;SDS011;15109;50.992;6.918;2022-12-05T07:38:36;10.23;;;5.28;;
27704;SDS011;15109;50.992;6.918;2022-12-05T07:41:57;14.43;;;5.47;;
27704;SDS011;15109;50.992;6.918;2022-12-05T07:45:20;10.55;;;5.20;;
27704;SDS011;15109;50.992;6.918;2022-12-05T07:48:41;12.02;;;5.97;;
27704;SDS011;15109;50.992;6.918;2022-12-05T07:52:02;8.93;;;5.15;;
27704;SDS011;15109;50.992;6.918;2022-12-05T07:55:24;9.38;;;5.28;;
27704;SDS011;15109;50.992;6.918;2022-12-05T07:58:46;10.45;;;4.70;;
27704;SDS011;15109;50.992;6.918;2022-12-05T08:02:08;11.63;;;5.43;;
27704;SDS011;15109;50.992;6.918;2022-12-05T08:05:29;13.73;;;5.90;;
27704;SDS011;15109;50.992;6.918;2022-12-05T08:08:50;12.45;;;5.60;;
27704;SDS011;15109;50.992;6.918;2022-12-05T08:12:11;7.80;;;4.50;;
27704;SDS011;15109;50.992;6.918;2022-12-05T08:15:33;9.05;;;5.07;;
27704;SDS011;15109;50.992;6.918;2022-12-05T08:18:57;9.95;;;5.65;;
27704;SDS011;15109;50.992;6.918;2022-12-05T08:22:20;11.73;;;5.55;;
27704;SDS011;15109;50.992;6.918;2022-12-05T08:25:41;9.77;;;5.97;;
27704;SDS011;15109;50.992;6.918;2022-12-05T08:32:28;12.30;;;5.20;;
27704;SDS011;15109;50.992;6.918;2022-12-05T08:35:49;6.82;;;3.92;;
27704;SDS011;15109;50.992;6.918;2022-12-05T08:39:11;10.85;;;5.25;;
27704;SDS011;15109;50.992;6.918;2022-12-05T08:42:35;6.72;;;3.83;;
27704;SDS011;15109;50.992;6.918;2022-12-05T08:45:56;12.88;;;6.25;;
27704;SDS011;15109;50.992;6.918;2022-12-05T08:49:18;10.13;;;4.35;;
27704;SDS011;15109;50.992;6.918;2022-12-05T08:52:39;16.58;;;5.40;;
27704;SDS011;15109;50.992;6.918;2022-12-05T08:56:01;8.98;;;3.85;;
27704;SDS011;15109;50.992;6.918;2022-12-05T08:59:23;15.75;;;6.10;;
27704;SDS011;15109;50.992;6.918;2022-12-05T09:02:44;13.18;;;5.97;;
27704;SDS011;15109;50.992;6.918;2022-12-05T09:09:32;8.50;;;5.28;;
27704;SDS011;15109;50.992;6.918;2022-12-05T09:12:54;10.93;;;5.72;;
27704;SDS011;15109;50.992;6.918;2022-12-05T09:16:17;13.13;;;5.53;;
27704;SDS011;15109;50.992;6.918;2022-12-05T09:19:39;8.05;;;5.13;;
27704;SDS011;15109;50.992;6.918;2022-12-05T09:23:00;9.73;;;5.05;;
27704;SDS011;15109;50.992;6.918;2022-12-05T09:26:22;8.45;;;4.78;;
27704;SDS011;15109;50.992;6.918;2022-12-05T09:29:44;9.00;;;4.78;;
27704;SDS011;15109;50.992;6.918;2022-12-05T09:33:05;8.15;;;4.90;;
27704;SDS011;15109;50.992;6.918;2022-12-05T09:36:27;8.95;;;4.55;;
27704;SDS011;15109;50.992;6.918;2022-12-05T09:39:50;9.55;;;4.93;;
27704;SDS011;15109;50.992;6.918;2022-12-05T09:43:24;10.63;;;5.03;;
27704;SDS011;15109;50.992;6.918;2022-12-05T09:46:57;11.27;;;5.53;;
27704;SDS011;15109;50.992;6.918;2022-12-05T09:50:26;8.85;;;4.75;;
27704;SDS011;15109;50.992;6.918;2022-12-05T09:53:48;11.48;;;5.82;;
27704;SDS011;15109;50.992;6.918;2022-12-05T09:57:09;9.85;;;4.95;;
27704;SDS011;15109;50.992;6.918;2022-12-05T10:00:31;13.73;;;7.25;;
27704;SDS011;15109;50.992;6.918;2022-12-05T10:11:04;11.05;;;5.60;;
27704;SDS011;15109;50.992;6.918;2022-12-05T10:22:12;12.05;;;5.65;;
27704;SDS011;15109;50.992;6.918;2022-12-05T10:25:40;12.45;;;6.35;;
27704;SDS011;15109;50.992;6.918;2022-12-05T10:36:12;11.18;;;5.80;;
27704;SDS011;15109;50.992;6.918;2022-12-05T10:39:35;13.02;;;5.60;;
27704;SDS011;15109;50.992;6.918;2022-12-05T10:42:56;13.35;;;6.20;;
27704;SDS011;15109;50.992;6.918;2022-12-05T10:46:17;10.68;;;5.18;;
27704;SDS011;15109;50.992;6.918;2022-12-05T10:49:39;7.72;;;4.78;;
27704;SDS011;15109;50.992;6.918;2022-12-05T10:53:01;6.80;;;4.07;;
27704;SDS011;15109;50.992;6.918;2022-12-05T11:00:09;9.43;;;4.90;;
27704;SDS011;15109;50.992;6.918;2022-12-05T11:03:36;9.38;;;5.07;;
27704;SDS011;15109;50.992;6.918;2022-12-05T11:07:00;11.35;;;5.40;;
27704;SDS011;15109;50.992;6.918;2022-12-05T11:10:31;6.93;;;4.03;;
27704;SDS011;15109;50.992;6.918;2022-12-05T11:13:56;9.07;;;4.22;;
27704;SDS011;15109;50.992;6.918;2022-12-05T11:17:26;10.75;;;5.65;;
27704;SDS011;15109;50.992;6.918;2022-12-05T11:20:52;11.60;;;5.25;;
27704;SDS011;15109;50.992;6.918;2022-12-05T11:24:33;9.98;;;5.57;;
27704;SDS011;15109;50.992;6.918;2022-12-05T11:35:37;11.02;;;3.42;;
27704;SDS011;15109;50.992;6.918;2022-12-05T11:38:59;9.68;;;4.75;;
27704;SDS011;15109;50.992;6.918;2022-12-05T11:46:06;7.63;;;4.40;;
27704;SDS011;15109;50.992;6.918;2022-12-05T12:01:00;13.68;;;6.28;;
27704;SDS011;15109;50.992;6.918;2022-12-05T12:04:49;10.00;;;5.43;;
27704;SDS011;15109;50.992;6.918;2022-12-05T12:08:25;11.30;;;6.95;;
27704;SDS011;15109;50.992;6.918;2022-12-05T12:30:08;7.20;;;4.25;;
27704;SDS011;15109;50.992;6.918;2022-12-05T12:51:10;10.13;;;4.95;;
27704;SDS011;15109;50.992;6.918;2022-12-05T13:06:00;6.88;;;4.43;;
27704;SDS011;15109;50.992;6.918;2022-12-05T13:13:03;7.32;;;4.63;;
27704;SDS011;15109;50.992;6.918;2022-12-05T13:16:31;7.45;;;4.43;;
27704;SDS011;15109;50.992;6.918;2022-12-05T13:19:56;7.97;;;4.60;;
27704;SDS011;15109;50.992;6.918;2022-12-05T13:23:19;11.60;;;4.78;;
27704;SDS011;15109;50.992;6.918;2022-12-05T13:26:47;8.48;;;4.80;;
27704;SDS011;15109;50.992;6.918;2022-12-05T13:30:16;9.57;;;5.32;;
27704;SDS011;15109;50.992;6.918;2022-12-05T13:33:43;8.35;;;4.63;;
27704;SDS011;15109;50.992;6.918;2022-12-05T13:37:09;8.13;;;4.97;;
27704;SDS011;15109;50.992;6.918;2022-12-05T13:40:55;7.45;;;4.10;;
27704;SDS011;15109;50.992;6.918;2022-12-05T13:44:39;11.52;;;4.63;;
27704;SDS011;15109;50.992;6.918;2022-12-05T13:51:34;8.18;;;4.35;;
27704;SDS011;15109;50.992;6.918;2022-12-05T13:55:10;9.30;;;4.63;;
27704;SDS011;15109;50.992;6.918;2022-12-05T14:02:11;10.75;;;5.38;;
27704;SDS011;15109;50.992;6.918;2022-12-05T14:06:05;7.82;;;4.47;;
27704;SDS011;15109;50.992;6.918;2022-12-05T14:09:28;13.10;;;5.78;;
27704;SDS011;15109;50.992;6.918;2022-12-05T14:16:40;12.18;;;7.43;;
27704;SDS011;15109;50.992;6.918;2022-12-05T14:27:55;13.05;;;6.57;;
27704;SDS011;15109;50.992;6.918;2022-12-05T14:35:22;11.63;;;6.45;;
27704;SDS011;15109;50.992;6.918;2022-12-05T14:38:51;10.43;;;6.30;;
27704;SDS011;15109;50.992;6.918;2022-12-05T14:46:02;12.55;;;6.75;;
27704;SDS011;15109;50.992;6.918;2022-12-05T14:49:33;13.50;;;6.38;;
27704;SDS011;15109;50.992;6.918;2022-12-05T14:56:39;10.25;;;5.78;;
27704;SDS011;15109;50.992;6.918;2022-12-05T15:00:05;9.68;;;5.90;;
27704;SDS011;15109;50.992;6.918;2022-12-05T15:03:31;10.57;;;6.43;;
27704;SDS011;15109;50.992;6.918;2022-12-05T15:06:59;19.58;;;6.20;;
27704;SDS011;15109;50.992;6.918;2022-12-05T15:10:28;10.40;;;6.47;;
27704;SDS011;15109;50.992;6.918;2022-12-05T15:14:00;9.52;;;6.07;;
27704;SDS011;15109;50.992;6.918;2022-12-05T15:17:35;12.43;;;7.00;;
27704;SDS011;15109;50.992;6.918;2022-12-05T15:24:24;8.95;;;5.60;;
27704;SDS011;15109;50.992;6.918;2022-12-05T15:28:19;8.93;;;5.43;;
27704;SDS011;15109;50.992;6.918;2022-12-05T15:31:45;12.38;;;5.43;;
27704;SDS011;15109;50.992;6.918;2022-12-05T15:35:08;8.43;;;4.60;;
27704;SDS011;15109;50.992;6.918;2022-12-05T15:38:33;8.77;;;5.25;;
27704;SDS011;15109;50.992;6.918;2022-12-05T15:41:56;10.70;;;4.65;;
27704;SDS011;15109;50.992;6.918;2022-12-05T15:45:24;7.80;;;4.25;;
27704;SDS011;15109;50.992;6.918;2022-12-05T15:48:48;7.25;;;4.47;;
27704;SDS011;15109;50.992;6.918;2022-12-05T15:55:41;6.95;;;3.80;;
27704;SDS011;15109;50.992;6.918;2022-12-05T15:59:11;8.23;;;4.72;;
27704;SDS011;15109;50.992;6.918;2022-12-05T16:03:26;8.70;;;4.70;;
27704;SDS011;15109;50.992;6.918;2022-12-05T16:06:33;5.75;;;3.20;;
27704;SDS011;15109;50.992;6.918;2022-12-05T16:09:59;6.95;;;4.40;;
27704;SDS011;15109;50.992;6.918;2022-12-05T16:13:22;8.48;;;4.93;;
27704;SDS011;15109;50.992;6.918;2022-12-05T16:16:45;6.22;;;3.63;;
27704;SDS011;15109;50.992;6.918;2022-12-05T16:20:11;16.50;;;4.55;;
27704;SDS011;15109;50.992;6.918;2022-12-05T16:23:42;10.73;;;4.25;;
27704;SDS011;15109;50.992;6.918;2022-12-05T16:27:14;10.60;;;4.63;;
27704;SDS011;15109;50.992;6.918;2022-12-05T16:30:52;6.00;;;3.38;;
27704;SDS011;15109;50.992;6.918;2022-12-05T16:34:19;5.97;;;3.53;;
27704;SDS011;15109;50.992;6.918;2022-12-05T16:37:40;6.07;;;2.97;;
27704;SDS011;15109;50.992;6.918;2022-12-05T16:41:02;8.52;;;4.32;;
27704;SDS011;15109;50.992;6.918;2022-12-05T16:54:44;6.80;;;4.07;;
27704;SDS011;15109;50.992;6.918;2022-12-05T16:58:08;15.25;;;4.43;;
27704;SDS011;15109;50.992;6.918;2022-12-05T17:01:33;8.02;;;4.50;;
27704;SDS011;15109;50.992;6.918;2022-12-05T17:04:54;8.68;;;4.80;;
27704;SDS011;15109;50.992;6.918;2022-12-05T17:08:16;8.85;;;4.78;;
27704;SDS011;15109;50.992;6.918;2022-12-05T17:11:37;7.97;;;4.43;;
27704;SDS011;15109;50.992;6.918;2022-12-05T17:15:00;8.82;;;4.45;;
27704;SDS011;15109;50.992;6.918;2022-12-05T17:18:21;6.28;;;4.20;;
27704;SDS011;15109;50.992;6.918;2022-12-05T17:21:43;10.90;;;5.00;;
27704;SDS011;15109;50.992;6.918;2022-12-05T17:25:12;10.98;;;5.78;;
27704;SDS011;15109;50.992;6.918;2022-12-05T17:28:39;6.75;;;4.20;;
27704;SDS011;15109;50.992;6.918;2022-12-05T17:32:00;9.23;;;5.82;;
27704;SDS011;15109;50.992;6.918;2022-12-05T17:35:21;10.48;;;5.85;;
27704;SDS011;15109;50.992;6.918;2022-12-05T17:38:42;9.73;;;5.97;;
27704;SDS011;15109;50.992;6.918;2022-12-05T17:42:05;11.07;;;5.55;;
27704;SDS011;15109;50.992;6.918;2022-12-05T17:45:26;9.65;;;5.90;;
27704;SDS011;15109;50.992;6.918;2022-12-05T17:48:47;11.40;;;5.70;;
27704;SDS011;15109;50.992;6.918;2022-12-05T17:52:09;11.05;;;6.45;;
27704;SDS011;15109;50.992;6.918;2022-12-05T17:55:31;8.20;;;5.10;;
27704;SDS011;15109;50.992;6.918;2022-12-05T17:58:52;11.25;;;5.82;;
27704;SDS011;15109;50.992;6.918;2022-12-05T18:02:13;9.38;;;5.50;;
27704;SDS011;15109;50.992;6.918;2022-12-05T18:05:36;6.63;;;3.72;;
27704;SDS011;15109;50.992;6.918;2022-12-05T18:08:58;8.23;;;4.95;;
27704;SDS011;15109;50.992;6.918;2022-12-05T18:12:19;8.70;;;4.78;;
27704;SDS011;15109;50.992;6.918;2022-12-05T18:15:40;9.18;;;4.55;;
27704;SDS011;15109;50.992;6.918;2022-12-05T18:19:01;7.63;;;4.82;;
27704;SDS011;15109;50.992;6.918;2022-12-05T18:22:22;8.60;;;5.78;;
27704;SDS011;15109;50.992;6.918;2022-12-05T18:25:54;9.90;;;4.57;;
27704;SDS011;15109;50.992;6.918;2022-12-05T18:29:16;11.73;;;6.28;;
27704;SDS011;15109;50.992;6.918;2022-12-05T18:32:37;7.60;;;4.55;;
27704;SDS011;15109;50.992;6.918;2022-12-05T18:36:05;10.43;;;5.18;;
27704;SDS011;15109;50.992;6.918;2022-12-05T18:39:31;7.45;;;4.13;;
27704;SDS011;15109;50.992;6.918;2022-12-05T18:42:57;7.95;;;4.38;;
27704;SDS011;15109;50.992;6.918;2022-12-05T18:46:18;7.72;;;3.88;;
27704;SDS011;15109;50.992;6.918;2022-12-05T18:49:39;5.75;;;3.40;;
27704;SDS011;15109;50.992;6.918;2022-12-05T18:53:00;6.57;;;3.90;;
27704;SDS011;15109;50.992;6.918;2022-12-05T18:56:23;8.88;;;5.18;;
27704;SDS011;15109;50.992;6.918;2022-12-05T18:59:54;9.20;;;4.90;;
27704;SDS011;15109;50.992;6.918;2022-12-05T19:03:15;9.02;;;4.03;;
27704;SDS011;15109;50.992;6.918;2022-12-05T19:06:39;7.22;;;3.60;;
27704;SDS011;15109;50.992;6.918;2022-12-05T19:10:06;5.75;;;3.72;;
27704;SDS011;15109;50.992;6.918;2022-12-05T19:13:28;9.60;;;5.30;;
27704;SDS011;15109;50.992;6.918;2022-12-05T19:16:49;7.57;;;4.30;;
27704;SDS011;15109;50.992;6.918;2022-12-05T19:20:14;6.55;;;3.58;;
27704;SDS011;15109;50.992;6.918;2022-12-05T19:23:35;5.25;;;3.40;;
27704;SDS011;15109;50.992;6.918;2022-12-05T19:26:57;8.85;;;4.82;;
27704;SDS011;15109;50.992;6.918;2022-12-05T19:30:18;7.60;;;3.42;;
27704;SDS011;15109;50.992;6.918;2022-12-05T19:33:40;9.18;;;3.97;;
27704;SDS011;15109;50.992;6.918;2022-12-05T19:37:02;4.82;;;2.60;;
27704;SDS011;15109;50.992;6.918;2022-12-05T19:40:23;4.00;;;2.72;;
27704;SDS011;15109;50.992;6.918;2022-12-05T19:43:44;10.98;;;5.07;;
27704;SDS011;15109;50.992;6.918;2022-12-05T19:47:05;6.65;;;4.22;;
27704;SDS011;15109;50.992;6.918;2022-12-05T19:50:26;5.80;;;3.95;;
27704;SDS011;15109;50.992;6.918;2022-12-05T19:53:48;4.63;;;2.72;;
27704;SDS011;15109;50.992;6.918;2022-12-05T19:57:10;7.00;;;3.42;;
27704;SDS011;15109;50.992;6.918;2022-12-05T20:00:31;4.43;;;2.40;;
27704;SDS011;15109;50.992;6.918;2022-12-05T20:03:53;7.57;;;3.20;;
27704;SDS011;15109;50.992;6.918;2022-12-05T20:07:18;5.80;;;3.65;;
27704;SDS011;15109;50.992;6.918;2022-12-05T20:10:39;3.55;;;2.22;;
27704;SDS011;15109;50.992;6.918;2022-12-05T20:14:00;6.50;;;3.40;;
27704;SDS011;15109;50.992;6.918;2022-12-05T20:17:22;4.97;;;2.92;;
27704;SDS011;15109;50.992;6.918;2022-12-05T20:20:43;6.60;;;3.28;;
27704;SDS011;15109;50.992;6.918;2022-12-05T20:24:04;3.42;;;1.98;;
27704;SDS011;15109;50.992;6.918;2022-12-05T20:27:26;3.53;;;2.38;;
27704;SDS011;15109;50.992;6.918;2022-12-05T20:30:47;6.63;;;3.33;;
27704;SDS011;15109;50.992;6.918;2022-12-05T20:34:09;3.72;;;2.47;;
27704;SDS011;15109;50.992;6.918;2022-12-05T20:37:33;4.28;;;2.47;;
27704;SDS011;15109;50.992;6.918;2022-12-05T20:41:00;6.13;;;3.28;;
27704;SDS011;15109;50.992;6.918;2022-12-05T20:44:23;8.27;;;3.15;;
27704;SDS011;15109;50.992;6.918;2022-12-05T20:47:44;7.07;;;3.38;;
27704;SDS011;15109;50.992;6.918;2022-12-05T20:51:09;5.15;;;2.60;;
27704;SDS011;15109;50.992;6.918;2022-12-05T20:54:31;5.00;;;2.63;;
27704;SDS011;15109;50.992;6.918;2022-12-05T20:57:52;8.73;;;3.55;;
27704;SDS011;15109;50.992;6.918;2022-12-05T21:01:14;7.88;;;2.97;;
27704;SDS011;15109;50.992;6.918;2022-12-05T21:04:37;5.97;;;3.42;;
27704;SDS011;15109;50.992;6.918;2022-12-05T21:08:00;6.03;;;3.10;;
27704;SDS011;15109;50.992;6.918;2022-12-05T21:11:24;7.53;;;3.42;;
27704;SDS011;15109;50.992;6.918;2022-12-05T21:14:47;5.32;;;3.47;;
27704;SDS011;15109;50.992;6.918;2022-12-05T21:18:08;4.70;;;3.05;;
27704;SDS011;15109;50.992;6.918;2022-12-05T21:21:29;7.88;;;3.15;;
27704;SDS011;15109;50.992;6.918;2022-12-05T21:24:53;6.38;;;3.63;;
27704;SDS011;15109;50.992;6.918;2022-12-05T21:28:14;5.28;;;2.53;;
27704;SDS011;15109;50.992;6.918;2022-12-05T21:31:37;5.05;;;2.17;;
27704;SDS011;15109;50.992;6.918;2022-12-05T21:35:00;5.82;;;3.63;;
27704;SDS011;15109;50.992;6.918;2022-12-05T21:38:21;8.93;;;3.75;;
27704;SDS011;15109;50.992;6.918;2022-12-05T21:41:42;7.95;;;4.43;;
27704;SDS011;15109;50.992;6.918;2022-12-05T21:45:03;8.88;;;5.05;;
27704;SDS011;15109;50.992;6.918;2022-12-05T21:48:24;10.73;;;6.00;;
27704;SDS011;15109;50.992;6.918;2022-12-05T21:51:45;9.85;;;4.63;;
27704;SDS011;15109;50.992;6.918;2022-12-05T21:55:07;9.98;;;4.22;;
27704;SDS011;15109;50.992;6.918;2022-12-05T21:58:30;4.82;;;3.13;;
27704;SDS011;15109;50.992;6.918;2022-12-05T22:01:51;7.47;;;3.63;;
27704;SDS011;15109;50.992;6.918;2022-12-05T22:05:12;8.52;;;4.22;;
27704;SDS011;15109;50.992;6.918;2022-12-05T22:08:36;5.20;;;2.65;;
27704;SDS011;15109;50.992;6.918;2022-12-05T22:11:57;6.05;;;3.15;;
27704;SDS011;15109;50.992;6.918;2022-12-05T22:15:18;6.75;;;3.80;;
27704;SDS011;15109;50.992;6.918;2022-12-05T22:18:40;6.45;;;3.33;;
27704;SDS011;15109;50.992;6.918;2022-12-05T22:22:01;5.43;;;3.22;;
27704;SDS011;15109;50.992;6.918;2022-12-05T22:25:22;12.38;;;3.85;;
27704;SDS011;15109;50.992;6.918;2022-12-05T22:28:43;5.55;;;3.33;;
27704;SDS011;15109;50.992;6.918;2022-12-05T22:32:05;6.18;;;3.50;;
27704;SDS011;15109;50.992;6.918;2022-12-05T22:35:26;7.05;;;3.65;;
27704;SDS011;15109;50.992;6.918;2022-12-05T22:38:47;5.97;;;3.53;;
27704;SDS011;15109;50.992;6.918;2022-12-05T22:42:08;8.02;;;3.85;;
27704;SDS011;15109;50.992;6.918;2022-12-05T22:45:33;4.95;;;2.78;;
27704;SDS011;15109;50.992;6.918;2022-12-05T22:48:55;9.23;;;4.10;;
27704;SDS011;15109;50.992;6.918;2022-12-05T22:52:16;10.77;;;4.35;;
27704;SDS011;15109;50.992;6.918;2022-12-05T22:55:40;6.60;;;3.15;;
27704;SDS011;15109;50.992;6.918;2022-12-05T22:59:02;7.45;;;3.90;;
27704;SDS011;15109;50.992;6.918;2022-12-05T23:02:23;6.70;;;3.95;;
27704;SDS011;15109;50.992;6.918;2022-12-05T23:05:44;8.73;;;3.70;;
27704;SDS011;15109;50.992;6.918;2022-12-05T23:09:06;7.50;;;3.88;;
27704;SDS011;15109;50.992;6.918;2022-12-05T23:12:28;7.57;;;3.45;;
27704;SDS011;15109;50.992;6.918;2022-12-05T23:15:50;7.20;;;4.53;;
27704;SDS011;15109;50.992;6.918;2022-12-05T23:19:11;7.75;;;4.18;;
27704;SDS011;15109;50.992;6.918;2022-12-05T23:22:32;10.38;;;3.90;;
27704;SDS011;15109;50.992;6.918;2022-12-05T23:25:55;8.02;;;4.80;;
27704;SDS011;15109;50.992;6.918;2022-12-05T23:29:16;7.85;;;4.53;;
27704;SDS011;15109;50.992;6.918;2022-12-05T23:32:37;6.72;;;3.63;;
27704;SDS011;15109;50.992;6.918;2022-12-05T23:35:58;7.10;;;3.97;;